sensor_id;sensor_type;location;lat;lon;timestamp;temperature;humidity
12413;DHT22;13877;18.896;-99.222;2023-07-29T00:02:25;25.80;84.40
12413;DHT22;13877;18.896;-99.222;2023-07-29T00:04:52;25.80;83.50
12413;DHT22;13877;18.896;-99.222;2023-07-29T00:07:18;25.80;81.70
12413;DHT22;13877;18.896;-99.222;2023-07-29T00:09:45;25.80;83.20
12413;DHT22;13877;18.896;-99.222;2023-07-29T00:12:11;25.70;83.10
12413;DHT22;13877;18.896;-99.222;2023-07-29T00:14:38;25.70;83.60
12413;DHT22;13877;18.896;-99.222;2023-07-29T00:17:05;25.70;84.40
12413;DHT22;13877;18.896;-99.222;2023-07-29T00:19:32;25.60;83.30
12413;DHT22;13877;18.896;-99.222;2023-07-29T00:21:59;25.50;84.00
12413;DHT22;13877;18.896;-99.222;2023-07-29T00:24:26;25.40;83.70
12413;DHT22;13877;18.896;-99.222;2023-07-29T00:26:52;25.30;84.20
12413;DHT22;13877;18.896;-99.222;2023-07-29T00:29:20;25.30;84.20
12413;DHT22;13877;18.896;-99.222;2023-07-29T00:31:46;25.20;83.00
12413;DHT22;13877;18.896;-99.222;2023-07-29T00:34:13;25.10;82.80
12413;DHT22;13877;18.896;-99.222;2023-07-29T00:36:43;25.00;82.20
12413;DHT22;13877;18.896;-99.222;2023-07-29T00:39:09;24.90;81.10
12413;DHT22;13877;18.896;-99.222;2023-07-29T00:41:36;24.80;80.20
12413;DHT22;13877;18.896;-99.222;2023-07-29T00:44:02;24.80;80.90
12413;DHT22;13877;18.896;-99.222;2023-07-29T00:46:29;24.70;80.60
12413;DHT22;13877;18.896;-99.222;2023-07-29T00:48:57;24.60;82.10
12413;DHT22;13877;18.896;-99.222;2023-07-29T00:51:23;24.50;82.90
12413;DHT22;13877;18.896;-99.222;2023-07-29T00:53:50;24.40;84.20
12413;DHT22;13877;18.896;-99.222;2023-07-29T00:56:16;24.30;83.70
12413;DHT22;13877;18.896;-99.222;2023-07-29T00:58:43;24.20;84.00
12413;DHT22;13877;18.896;-99.222;2023-07-29T01:01:10;24.10;84.70
12413;DHT22;13877;18.896;-99.222;2023-07-29T01:03:36;24.00;84.70
12413;DHT22;13877;18.896;-99.222;2023-07-29T01:08:55;23.80;85.80
12413;DHT22;13877;18.896;-99.222;2023-07-29T01:14:01;23.60;86.70
12413;DHT22;13877;18.896;-99.222;2023-07-29T01:16:40;23.60;87.60
12413;DHT22;13877;18.896;-99.222;2023-07-29T01:19:09;23.50;89.70
12413;DHT22;13877;18.896;-99.222;2023-07-29T01:21:41;23.70;88.20
12413;DHT22;13877;18.896;-99.222;2023-07-29T01:24:08;23.70;88.70
12413;DHT22;13877;18.896;-99.222;2023-07-29T01:26:34;23.80;86.30
12413;DHT22;13877;18.896;-99.222;2023-07-29T01:29:02;23.80;86.90
12413;DHT22;13877;18.896;-99.222;2023-07-29T01:31:33;23.80;87.80
12413;DHT22;13877;18.896;-99.222;2023-07-29T01:34:06;23.70;88.10
12413;DHT22;13877;18.896;-99.222;2023-07-29T01:36:33;23.60;88.50
12413;DHT22;13877;18.896;-99.222;2023-07-29T01:39:01;23.50;90.40
12413;DHT22;13877;18.896;-99.222;2023-07-29T01:41:28;23.30;90.00
12413;DHT22;13877;18.896;-99.222;2023-07-29T01:43:55;23.20;89.90
12413;DHT22;13877;18.896;-99.222;2023-07-29T01:46:22;23.20;89.50
12413;DHT22;13877;18.896;-99.222;2023-07-29T01:48:49;23.20;89.00
12413;DHT22;13877;18.896;-99.222;2023-07-29T01:51:15;23.10;88.90
12413;DHT22;13877;18.896;-99.222;2023-07-29T01:53:42;23.00;87.00
12413;DHT22;13877;18.896;-99.222;2023-07-29T01:56:08;23.10;87.30
12413;DHT22;13877;18.896;-99.222;2023-07-29T01:58:38;23.20;87.70
12413;DHT22;13877;18.896;-99.222;2023-07-29T02:01:05;23.10;88.50
12413;DHT22;13877;18.896;-99.222;2023-07-29T02:03:32;23.10;88.50
12413;DHT22;13877;18.896;-99.222;2023-07-29T02:05:59;23.00;89.20
12413;DHT22;13877;18.896;-99.222;2023-07-29T02:08:25;22.90;89.70
12413;DHT22;13877;18.896;-99.222;2023-07-29T02:10:52;22.90;89.90
12413;DHT22;13877;18.896;-99.222;2023-07-29T02:13:19;22.80;90.10
12413;DHT22;13877;18.896;-99.222;2023-07-29T02:15:45;22.70;90.80
12413;DHT22;13877;18.896;-99.222;2023-07-29T02:18:12;22.70;90.90
12413;DHT22;13877;18.896;-99.222;2023-07-29T02:20:38;22.70;91.20
12413;DHT22;13877;18.896;-99.222;2023-07-29T02:23:05;22.70;91.50
12413;DHT22;13877;18.896;-99.222;2023-07-29T02:25:34;22.80;92.10
12413;DHT22;13877;18.896;-99.222;2023-07-29T02:28:01;22.80;91.90
12413;DHT22;13877;18.896;-99.222;2023-07-29T02:30:29;22.80;91.90
12413;DHT22;13877;18.896;-99.222;2023-07-29T02:32:55;22.80;92.30
12413;DHT22;13877;18.896;-99.222;2023-07-29T02:35:22;22.70;93.10
12413;DHT22;13877;18.896;-99.222;2023-07-29T02:37:48;22.50;93.00
12413;DHT22;13877;18.896;-99.222;2023-07-29T02:40:19;22.70;92.60
12413;DHT22;13877;18.896;-99.222;2023-07-29T02:42:47;22.90;92.80
12413;DHT22;13877;18.896;-99.222;2023-07-29T02:45:13;23.00;92.60
12413;DHT22;13877;18.896;-99.222;2023-07-29T02:47:39;23.00;92.90
12413;DHT22;13877;18.896;-99.222;2023-07-29T02:50:06;23.00;93.00
12413;DHT22;13877;18.896;-99.222;2023-07-29T02:52:33;23.00;93.20
12413;DHT22;13877;18.896;-99.222;2023-07-29T02:55:00;23.20;92.20
12413;DHT22;13877;18.896;-99.222;2023-07-29T02:57:30;23.70;87.00
12413;DHT22;13877;18.896;-99.222;2023-07-29T02:59:57;24.10;84.50
12413;DHT22;13877;18.896;-99.222;2023-07-29T03:02:23;24.20;81.90
12413;DHT22;13877;18.896;-99.222;2023-07-29T03:04:50;24.30;80.30
12413;DHT22;13877;18.896;-99.222;2023-07-29T03:07:16;24.20;82.10
12413;DHT22;13877;18.896;-99.222;2023-07-29T03:09:43;24.20;81.90
12413;DHT22;13877;18.896;-99.222;2023-07-29T03:12:11;24.10;90.20
12413;DHT22;13877;18.896;-99.222;2023-07-29T03:14:37;23.70;92.00
12413;DHT22;13877;18.896;-99.222;2023-07-29T03:17:04;23.40;93.20
12413;DHT22;13877;18.896;-99.222;2023-07-29T03:19:31;23.30;93.30
12413;DHT22;13877;18.896;-99.222;2023-07-29T03:21:57;23.30;92.90
12413;DHT22;13877;18.896;-99.222;2023-07-29T03:24:23;23.40;92.80
12413;DHT22;13877;18.896;-99.222;2023-07-29T03:26:50;23.30;93.00
12413;DHT22;13877;18.896;-99.222;2023-07-29T03:29:16;23.30;92.70
12413;DHT22;13877;18.896;-99.222;2023-07-29T03:31:43;23.30;92.60
12413;DHT22;13877;18.896;-99.222;2023-07-29T03:34:09;23.20;92.70
12413;DHT22;13877;18.896;-99.222;2023-07-29T03:36:38;23.20;92.30
12413;DHT22;13877;18.896;-99.222;2023-07-29T03:39:04;23.20;92.00
12413;DHT22;13877;18.896;-99.222;2023-07-29T03:41:31;23.10;92.00
12413;DHT22;13877;18.896;-99.222;2023-07-29T03:43:57;23.10;91.60
12413;DHT22;13877;18.896;-99.222;2023-07-29T03:46:24;23.20;91.20
12413;DHT22;13877;18.896;-99.222;2023-07-29T03:48:51;23.20;91.20
12413;DHT22;13877;18.896;-99.222;2023-07-29T03:51:17;23.20;91.40
12413;DHT22;13877;18.896;-99.222;2023-07-29T03:53:44;23.10;90.90
12413;DHT22;13877;18.896;-99.222;2023-07-29T03:56:10;23.10;90.90
12413;DHT22;13877;18.896;-99.222;2023-07-29T03:58:37;23.00;90.80
12413;DHT22;13877;18.896;-99.222;2023-07-29T04:01:03;23.00;91.00
12413;DHT22;13877;18.896;-99.222;2023-07-29T04:03:30;22.90;91.20
12413;DHT22;13877;18.896;-99.222;2023-07-29T04:05:57;22.80;91.00
12413;DHT22;13877;18.896;-99.222;2023-07-29T04:08:23;22.80;91.00
12413;DHT22;13877;18.896;-99.222;2023-07-29T04:10:50;22.80;90.80
12413;DHT22;13877;18.896;-99.222;2023-07-29T04:13:17;22.80;91.10
12413;DHT22;13877;18.896;-99.222;2023-07-29T04:15:43;22.70;90.80
12413;DHT22;13877;18.896;-99.222;2023-07-29T04:18:10;22.60;91.00
12413;DHT22;13877;18.896;-99.222;2023-07-29T04:20:37;22.60;91.50
12413;DHT22;13877;18.896;-99.222;2023-07-29T04:23:03;22.50;91.70
12413;DHT22;13877;18.896;-99.222;2023-07-29T04:25:30;22.30;92.00
12413;DHT22;13877;18.896;-99.222;2023-07-29T04:27:56;22.10;92.30
12413;DHT22;13877;18.896;-99.222;2023-07-29T04:30:24;22.00;92.80
12413;DHT22;13877;18.896;-99.222;2023-07-29T04:32:50;21.90;93.00
12413;DHT22;13877;18.896;-99.222;2023-07-29T04:35:17;21.90;92.90
12413;DHT22;13877;18.896;-99.222;2023-07-29T04:37:43;21.90;92.90
12413;DHT22;13877;18.896;-99.222;2023-07-29T04:40:10;21.80;93.20
12413;DHT22;13877;18.896;-99.222;2023-07-29T04:42:37;21.70;93.10
12413;DHT22;13877;18.896;-99.222;2023-07-29T04:45:04;21.70;93.00
12413;DHT22;13877;18.896;-99.222;2023-07-29T04:47:32;21.70;92.70
12413;DHT22;13877;18.896;-99.222;2023-07-29T04:49:58;21.70;92.60
12413;DHT22;13877;18.896;-99.222;2023-07-29T04:52:25;21.50;93.70
12413;DHT22;13877;18.896;-99.222;2023-07-29T04:54:52;21.40;94.40
12413;DHT22;13877;18.896;-99.222;2023-07-29T04:57:19;21.20;94.80
12413;DHT22;13877;18.896;-99.222;2023-07-29T04:59:45;21.20;95.10
12413;DHT22;13877;18.896;-99.222;2023-07-29T05:02:11;21.10;95.10
12413;DHT22;13877;18.896;-99.222;2023-07-29T05:04:38;21.20;95.10
12413;DHT22;13877;18.896;-99.222;2023-07-29T05:07:05;21.20;96.20
12413;DHT22;13877;18.896;-99.222;2023-07-29T05:09:31;21.00;96.20
12413;DHT22;13877;18.896;-99.222;2023-07-29T05:11:58;20.70;98.30
12413;DHT22;13877;18.896;-99.222;2023-07-29T05:14:24;20.20;99.90
12413;DHT22;13877;18.896;-99.222;2023-07-29T05:16:51;19.80;99.90
12413;DHT22;13877;18.896;-99.222;2023-07-29T05:19:18;19.40;99.90
12413;DHT22;13877;18.896;-99.222;2023-07-29T05:21:44;19.10;99.90
12413;DHT22;13877;18.896;-99.222;2023-07-29T05:24:11;18.90;99.90
12413;DHT22;13877;18.896;-99.222;2023-07-29T05:26:37;18.80;99.90
12413;DHT22;13877;18.896;-99.222;2023-07-29T05:29:04;18.80;99.90
12413;DHT22;13877;18.896;-99.222;2023-07-29T05:31:31;18.80;99.90
12413;DHT22;13877;18.896;-99.222;2023-07-29T05:33:58;18.80;99.90
12413;DHT22;13877;18.896;-99.222;2023-07-29T05:36:25;18.80;99.90
12413;DHT22;13877;18.896;-99.222;2023-07-29T05:38:51;18.80;99.90
12413;DHT22;13877;18.896;-99.222;2023-07-29T05:41:18;18.90;99.90
12413;DHT22;13877;18.896;-99.222;2023-07-29T05:43:45;18.70;99.90
12413;DHT22;13877;18.896;-99.222;2023-07-29T05:46:11;18.60;99.90
12413;DHT22;13877;18.896;-99.222;2023-07-29T05:48:38;18.70;99.90
12413;DHT22;13877;18.896;-99.222;2023-07-29T05:51:04;18.90;99.90
12413;DHT22;13877;18.896;-99.222;2023-07-29T05:53:34;19.20;99.90
12413;DHT22;13877;18.896;-99.222;2023-07-29T05:56:00;19.30;99.90
12413;DHT22;13877;18.896;-99.222;2023-07-29T05:58:27;19.20;99.90
12413;DHT22;13877;18.896;-99.222;2023-07-29T06:00:53;19.00;99.90
12413;DHT22;13877;18.896;-99.222;2023-07-29T06:03:20;18.90;99.90
12413;DHT22;13877;18.896;-99.222;2023-07-29T06:05:48;18.90;99.90
12413;DHT22;13877;18.896;-99.222;2023-07-29T06:08:14;18.90;99.90
12413;DHT22;13877;18.896;-99.222;2023-07-29T06:10:41;18.90;99.90
12413;DHT22;13877;18.896;-99.222;2023-07-29T06:13:07;18.80;99.90
12413;DHT22;13877;18.896;-99.222;2023-07-29T06:15:34;18.80;99.90
12413;DHT22;13877;18.896;-99.222;2023-07-29T06:18:00;18.80;99.90
12413;DHT22;13877;18.896;-99.222;2023-07-29T06:20:27;18.80;99.90
12413;DHT22;13877;18.896;-99.222;2023-07-29T06:22:53;18.80;99.90
12413;DHT22;13877;18.896;-99.222;2023-07-29T06:25:20;18.80;99.90
12413;DHT22;13877;18.896;-99.222;2023-07-29T06:27:46;18.70;99.90
12413;DHT22;13877;18.896;-99.222;2023-07-29T06:30:12;18.70;99.90
12413;DHT22;13877;18.896;-99.222;2023-07-29T06:32:39;18.70;99.90
12413;DHT22;13877;18.896;-99.222;2023-07-29T06:35:05;18.70;99.90
12413;DHT22;13877;18.896;-99.222;2023-07-29T06:37:32;18.60;99.90
12413;DHT22;13877;18.896;-99.222;2023-07-29T06:39:59;18.50;99.90
12413;DHT22;13877;18.896;-99.222;2023-07-29T06:42:25;18.50;99.90
12413;DHT22;13877;18.896;-99.222;2023-07-29T06:44:52;18.50;99.90
12413;DHT22;13877;18.896;-99.222;2023-07-29T06:47:18;18.50;99.90
12413;DHT22;13877;18.896;-99.222;2023-07-29T06:49:45;18.40;99.90
12413;DHT22;13877;18.896;-99.222;2023-07-29T06:52:12;18.40;99.90
12413;DHT22;13877;18.896;-99.222;2023-07-29T06:54:38;18.40;99.90
12413;DHT22;13877;18.896;-99.222;2023-07-29T06:57:05;18.40;99.90
12413;DHT22;13877;18.896;-99.222;2023-07-29T06:59:31;18.50;99.90
12413;DHT22;13877;18.896;-99.222;2023-07-29T07:01:58;18.50;99.90
12413;DHT22;13877;18.896;-99.222;2023-07-29T07:04:26;18.60;99.90
12413;DHT22;13877;18.896;-99.222;2023-07-29T07:06:52;18.50;99.90
12413;DHT22;13877;18.896;-99.222;2023-07-29T07:09:19;18.60;99.90
12413;DHT22;13877;18.896;-99.222;2023-07-29T07:11:45;18.60;99.90
12413;DHT22;13877;18.896;-99.222;2023-07-29T07:14:12;18.70;99.90
12413;DHT22;13877;18.896;-99.222;2023-07-29T07:16:38;18.80;99.90
12413;DHT22;13877;18.896;-99.222;2023-07-29T07:19:05;18.90;99.90
12413;DHT22;13877;18.896;-99.222;2023-07-29T07:21:32;18.90;99.90
12413;DHT22;13877;18.896;-99.222;2023-07-29T07:24:01;19.00;99.90
12413;DHT22;13877;18.896;-99.222;2023-07-29T07:26:27;19.00;99.90
12413;DHT22;13877;18.896;-99.222;2023-07-29T07:28:53;19.10;99.90
12413;DHT22;13877;18.896;-99.222;2023-07-29T07:31:20;19.20;99.90
12413;DHT22;13877;18.896;-99.222;2023-07-29T07:33:46;19.30;99.90
12413;DHT22;13877;18.896;-99.222;2023-07-29T07:36:13;19.40;99.90
12413;DHT22;13877;18.896;-99.222;2023-07-29T07:38:39;19.40;99.90
12413;DHT22;13877;18.896;-99.222;2023-07-29T07:41:06;19.30;99.90
12413;DHT22;13877;18.896;-99.222;2023-07-29T07:43:32;19.20;99.90
12413;DHT22;13877;18.896;-99.222;2023-07-29T07:45:59;19.40;99.90
12413;DHT22;13877;18.896;-99.222;2023-07-29T07:48:29;19.50;99.90
12413;DHT22;13877;18.896;-99.222;2023-07-29T07:50:55;19.30;99.90
12413;DHT22;13877;18.896;-99.222;2023-07-29T07:53:22;19.00;99.90
12413;DHT22;13877;18.896;-99.222;2023-07-29T07:55:51;18.90;99.90
12413;DHT22;13877;18.896;-99.222;2023-07-29T07:58:18;18.80;99.90
12413;DHT22;13877;18.896;-99.222;2023-07-29T08:00:44;18.70;99.90
12413;DHT22;13877;18.896;-99.222;2023-07-29T08:03:10;18.60;99.90
12413;DHT22;13877;18.896;-99.222;2023-07-29T08:05:39;18.60;99.90
12413;DHT22;13877;18.896;-99.222;2023-07-29T08:08:06;18.50;99.90
12413;DHT22;13877;18.896;-99.222;2023-07-29T08:10:32;18.40;99.90
12413;DHT22;13877;18.896;-99.222;2023-07-29T08:12:59;18.50;99.90
12413;DHT22;13877;18.896;-99.222;2023-07-29T08:15:25;18.50;99.90
12413;DHT22;13877;18.896;-99.222;2023-07-29T08:17:52;18.50;99.90
12413;DHT22;13877;18.896;-99.222;2023-07-29T08:20:18;18.50;99.90
12413;DHT22;13877;18.896;-99.222;2023-07-29T08:22:45;18.60;99.90
12413;DHT22;13877;18.896;-99.222;2023-07-29T08:25:11;18.60;99.90
12413;DHT22;13877;18.896;-99.222;2023-07-29T08:27:37;18.60;99.90
12413;DHT22;13877;18.896;-99.222;2023-07-29T08:30:04;18.50;99.90
12413;DHT22;13877;18.896;-99.222;2023-07-29T08:32:31;18.60;99.90
12413;DHT22;13877;18.896;-99.222;2023-07-29T08:34:57;18.50;99.90
12413;DHT22;13877;18.896;-99.222;2023-07-29T08:37:23;18.50;99.90
12413;DHT22;13877;18.896;-99.222;2023-07-29T08:39:50;18.40;99.90
12413;DHT22;13877;18.896;-99.222;2023-07-29T08:42:19;18.40;99.90
12413;DHT22;13877;18.896;-99.222;2023-07-29T08:44:47;18.50;99.90
12413;DHT22;13877;18.896;-99.222;2023-07-29T08:47:15;18.50;99.90
12413;DHT22;13877;18.896;-99.222;2023-07-29T08:49:42;18.50;99.90
12413;DHT22;13877;18.896;-99.222;2023-07-29T08:52:10;18.30;99.90
12413;DHT22;13877;18.896;-99.222;2023-07-29T08:54:37;18.30;99.90
12413;DHT22;13877;18.896;-99.222;2023-07-29T08:57:03;18.40;99.90
12413;DHT22;13877;18.896;-99.222;2023-07-29T08:59:30;18.40;99.90
12413;DHT22;13877;18.896;-99.222;2023-07-29T09:01:57;18.40;99.90
12413;DHT22;13877;18.896;-99.222;2023-07-29T09:04:24;18.60;99.90
12413;DHT22;13877;18.896;-99.222;2023-07-29T09:06:51;18.60;99.90
12413;DHT22;13877;18.896;-99.222;2023-07-29T09:09:17;18.70;99.90
12413;DHT22;13877;18.896;-99.222;2023-07-29T09:11:44;18.60;99.90
12413;DHT22;13877;18.896;-99.222;2023-07-29T09:14:10;18.70;99.90
12413;DHT22;13877;18.896;-99.222;2023-07-29T09:16:36;18.70;99.90
12413;DHT22;13877;18.896;-99.222;2023-07-29T09:19:04;18.60;99.90
12413;DHT22;13877;18.896;-99.222;2023-07-29T09:21:31;18.70;99.90
12413;DHT22;13877;18.896;-99.222;2023-07-29T09:23:57;18.60;99.90
12413;DHT22;13877;18.896;-99.222;2023-07-29T09:26:28;18.60;99.90
12413;DHT22;13877;18.896;-99.222;2023-07-29T09:28:55;18.60;99.90
12413;DHT22;13877;18.896;-99.222;2023-07-29T09:31:23;18.60;99.90
12413;DHT22;13877;18.896;-99.222;2023-07-29T09:33:50;18.60;99.90
12413;DHT22;13877;18.896;-99.222;2023-07-29T09:36:16;18.60;99.90
12413;DHT22;13877;18.896;-99.222;2023-07-29T09:38:43;18.60;99.90
12413;DHT22;13877;18.896;-99.222;2023-07-29T09:41:11;18.60;99.90
12413;DHT22;13877;18.896;-99.222;2023-07-29T09:43:39;18.60;99.90
12413;DHT22;13877;18.896;-99.222;2023-07-29T09:46:05;18.60;99.90
12413;DHT22;13877;18.896;-99.222;2023-07-29T09:48:35;18.60;99.90
12413;DHT22;13877;18.896;-99.222;2023-07-29T09:51:14;18.50;99.90
12413;DHT22;13877;18.896;-99.222;2023-07-29T09:53:45;18.50;99.90
12413;DHT22;13877;18.896;-99.222;2023-07-29T09:56:13;18.50;99.90
12413;DHT22;13877;18.896;-99.222;2023-07-29T09:58:40;18.40;99.90
12413;DHT22;13877;18.896;-99.222;2023-07-29T10:01:08;18.40;99.90
12413;DHT22;13877;18.896;-99.222;2023-07-29T10:03:35;18.40;99.90
12413;DHT22;13877;18.896;-99.222;2023-07-29T10:06:05;18.40;99.90
12413;DHT22;13877;18.896;-99.222;2023-07-29T10:08:32;18.30;99.90
12413;DHT22;13877;18.896;-99.222;2023-07-29T10:11:01;18.30;99.90
12413;DHT22;13877;18.896;-99.222;2023-07-29T10:13:28;18.30;99.90
12413;DHT22;13877;18.896;-99.222;2023-07-29T10:15:54;18.30;99.90
12413;DHT22;13877;18.896;-99.222;2023-07-29T10:18:24;18.30;99.90
12413;DHT22;13877;18.896;-99.222;2023-07-29T10:20:51;18.30;99.90
12413;DHT22;13877;18.896;-99.222;2023-07-29T10:23:18;18.30;99.90
12413;DHT22;13877;18.896;-99.222;2023-07-29T10:26:04;18.30;99.90
12413;DHT22;13877;18.896;-99.222;2023-07-29T10:28:31;18.30;99.90
12413;DHT22;13877;18.896;-99.222;2023-07-29T10:30:58;18.20;99.90
12413;DHT22;13877;18.896;-99.222;2023-07-29T10:33:25;18.20;99.90
12413;DHT22;13877;18.896;-99.222;2023-07-29T10:35:51;18.20;99.90
12413;DHT22;13877;18.896;-99.222;2023-07-29T10:38:19;18.30;99.90
12413;DHT22;13877;18.896;-99.222;2023-07-29T10:43:18;18.20;99.90
12413;DHT22;13877;18.896;-99.222;2023-07-29T10:45:45;18.10;99.90
12413;DHT22;13877;18.896;-99.222;2023-07-29T10:48:12;18.10;99.90
12413;DHT22;13877;18.896;-99.222;2023-07-29T10:50:38;18.20;99.90
12413;DHT22;13877;18.896;-99.222;2023-07-29T10:53:05;18.20;99.90
12413;DHT22;13877;18.896;-99.222;2023-07-29T10:55:35;18.20;99.90
12413;DHT22;13877;18.896;-99.222;2023-07-29T11:00:34;18.20;99.90
12413;DHT22;13877;18.896;-99.222;2023-07-29T11:03:01;18.00;99.90
12413;DHT22;13877;18.896;-99.222;2023-07-29T11:08:17;17.60;99.90
12413;DHT22;13877;18.896;-99.222;2023-07-29T11:10:45;17.40;99.90
12413;DHT22;13877;18.896;-99.222;2023-07-29T11:13:25;17.30;99.90
12413;DHT22;13877;18.896;-99.222;2023-07-29T11:15:52;17.20;99.90
12413;DHT22;13877;18.896;-99.222;2023-07-29T11:18:19;17.00;99.90
12413;DHT22;13877;18.896;-99.222;2023-07-29T11:20:46;17.20;99.90
12413;DHT22;13877;18.896;-99.222;2023-07-29T11:23:13;17.40;99.90
12413;DHT22;13877;18.896;-99.222;2023-07-29T11:25:40;17.40;99.90
12413;DHT22;13877;18.896;-99.222;2023-07-29T11:28:07;17.20;99.90
12413;DHT22;13877;18.896;-99.222;2023-07-29T11:30:33;17.20;99.90
12413;DHT22;13877;18.896;-99.222;2023-07-29T11:33:00;17.40;99.90
12413;DHT22;13877;18.896;-99.222;2023-07-29T11:35:27;17.60;99.90
12413;DHT22;13877;18.896;-99.222;2023-07-29T11:37:54;17.60;99.90
12413;DHT22;13877;18.896;-99.222;2023-07-29T11:40:21;17.70;99.90
12413;DHT22;13877;18.896;-99.222;2023-07-29T11:42:49;17.50;99.90
12413;DHT22;13877;18.896;-99.222;2023-07-29T11:45:19;17.40;99.90
12413;DHT22;13877;18.896;-99.222;2023-07-29T11:47:45;17.40;99.90
12413;DHT22;13877;18.896;-99.222;2023-07-29T11:50:13;17.50;99.90
12413;DHT22;13877;18.896;-99.222;2023-07-29T11:52:43;17.30;99.90
12413;DHT22;13877;18.896;-99.222;2023-07-29T11:55:11;17.20;99.90
12413;DHT22;13877;18.896;-99.222;2023-07-29T11:57:38;17.10;99.90
12413;DHT22;13877;18.896;-99.222;2023-07-29T12:00:06;17.10;99.90
12413;DHT22;13877;18.896;-99.222;2023-07-29T12:02:36;17.10;99.90
12413;DHT22;13877;18.896;-99.222;2023-07-29T12:05:03;17.10;99.90
12413;DHT22;13877;18.896;-99.222;2023-07-29T12:07:30;16.90;99.90
12413;DHT22;13877;18.896;-99.222;2023-07-29T12:09:57;16.80;99.90
12413;DHT22;13877;18.896;-99.222;2023-07-29T12:12:23;16.90;99.90
12413;DHT22;13877;18.896;-99.222;2023-07-29T12:14:50;16.90;99.90
12413;DHT22;13877;18.896;-99.222;2023-07-29T12:17:16;16.80;99.90
12413;DHT22;13877;18.896;-99.222;2023-07-29T12:19:44;16.80;99.90
12413;DHT22;13877;18.896;-99.222;2023-07-29T12:22:10;16.80;99.90
12413;DHT22;13877;18.896;-99.222;2023-07-29T12:24:38;16.90;99.90
12413;DHT22;13877;18.896;-99.222;2023-07-29T12:27:04;17.00;99.90
12413;DHT22;13877;18.896;-99.222;2023-07-29T12:29:31;17.10;99.90
12413;DHT22;13877;18.896;-99.222;2023-07-29T12:31:58;17.20;99.90
12413;DHT22;13877;18.896;-99.222;2023-07-29T12:34:26;17.30;99.90
12413;DHT22;13877;18.896;-99.222;2023-07-29T12:36:53;17.60;99.90
12413;DHT22;13877;18.896;-99.222;2023-07-29T12:39:22;18.00;99.90
12413;DHT22;13877;18.896;-99.222;2023-07-29T12:41:49;18.20;99.90
12413;DHT22;13877;18.896;-99.222;2023-07-29T12:44:16;18.40;99.90
12413;DHT22;13877;18.896;-99.222;2023-07-29T12:46:42;18.50;99.90
12413;DHT22;13877;18.896;-99.222;2023-07-29T12:49:09;18.60;99.90
12413;DHT22;13877;18.896;-99.222;2023-07-29T12:51:36;18.70;99.90
12413;DHT22;13877;18.896;-99.222;2023-07-29T12:54:03;19.00;99.90
12413;DHT22;13877;18.896;-99.222;2023-07-29T12:56:30;19.20;99.90
12413;DHT22;13877;18.896;-99.222;2023-07-29T12:58:57;19.50;99.90
12413;DHT22;13877;18.896;-99.222;2023-07-29T13:01:27;19.70;99.90
12413;DHT22;13877;18.896;-99.222;2023-07-29T13:03:54;19.80;99.90
12413;DHT22;13877;18.896;-99.222;2023-07-29T13:06:20;20.00;99.90
12413;DHT22;13877;18.896;-99.222;2023-07-29T13:08:47;20.20;99.90
12413;DHT22;13877;18.896;-99.222;2023-07-29T13:11:14;20.40;99.90
12413;DHT22;13877;18.896;-99.222;2023-07-29T13:13:40;20.60;99.90
12413;DHT22;13877;18.896;-99.222;2023-07-29T13:16:07;20.70;99.90
12413;DHT22;13877;18.896;-99.222;2023-07-29T13:18:33;20.90;99.90
12413;DHT22;13877;18.896;-99.222;2023-07-29T13:21:00;21.00;99.90
12413;DHT22;13877;18.896;-99.222;2023-07-29T13:23:26;21.10;99.90
12413;DHT22;13877;18.896;-99.222;2023-07-29T13:25:54;21.40;99.90
12413;DHT22;13877;18.896;-99.222;2023-07-29T13:28:20;21.60;99.90
12413;DHT22;13877;18.896;-99.222;2023-07-29T13:30:46;21.70;99.90
12413;DHT22;13877;18.896;-99.222;2023-07-29T13:33:13;21.70;99.90
12413;DHT22;13877;18.896;-99.222;2023-07-29T13:35:39;22.00;99.90
12413;DHT22;13877;18.896;-99.222;2023-07-29T13:38:06;22.20;99.90
12413;DHT22;13877;18.896;-99.222;2023-07-29T13:40:32;22.40;99.90
12413;DHT22;13877;18.896;-99.222;2023-07-29T13:42:59;22.70;99.90
12413;DHT22;13877;18.896;-99.222;2023-07-29T13:45:25;22.70;99.90
12413;DHT22;13877;18.896;-99.222;2023-07-29T13:47:51;22.50;99.90
12413;DHT22;13877;18.896;-99.222;2023-07-29T13:50:18;22.50;99.90
12413;DHT22;13877;18.896;-99.222;2023-07-29T13:52:44;22.50;99.90
12413;DHT22;13877;18.896;-99.222;2023-07-29T13:55:11;22.60;99.90
12413;DHT22;13877;18.896;-99.222;2023-07-29T13:57:38;22.60;99.90
12413;DHT22;13877;18.896;-99.222;2023-07-29T14:00:07;22.70;99.90
12413;DHT22;13877;18.896;-99.222;2023-07-29T14:02:40;23.00;99.90
12413;DHT22;13877;18.896;-99.222;2023-07-29T14:05:07;23.30;99.90
12413;DHT22;13877;18.896;-99.222;2023-07-29T14:07:33;23.40;99.90
12413;DHT22;13877;18.896;-99.222;2023-07-29T14:10:00;23.30;99.90
12413;DHT22;13877;18.896;-99.222;2023-07-29T14:12:26;23.20;99.90
12413;DHT22;13877;18.896;-99.222;2023-07-29T14:14:52;23.30;99.90
12413;DHT22;13877;18.896;-99.222;2023-07-29T14:17:19;23.40;99.90
12413;DHT22;13877;18.896;-99.222;2023-07-29T14:19:45;23.60;99.90
12413;DHT22;13877;18.896;-99.222;2023-07-29T14:22:12;23.60;99.90
12413;DHT22;13877;18.896;-99.222;2023-07-29T14:24:38;23.60;99.90
12413;DHT22;13877;18.896;-99.222;2023-07-29T14:27:04;23.70;99.90
12413;DHT22;13877;18.896;-99.222;2023-07-29T14:29:31;23.80;99.90
12413;DHT22;13877;18.896;-99.222;2023-07-29T14:31:57;23.70;99.90
12413;DHT22;13877;18.896;-99.222;2023-07-29T14:34:24;23.80;99.90
12413;DHT22;13877;18.896;-99.222;2023-07-29T14:36:50;23.70;99.90
12413;DHT22;13877;18.896;-99.222;2023-07-29T14:39:17;23.70;99.90
12413;DHT22;13877;18.896;-99.222;2023-07-29T14:41:43;23.90;99.90
12413;DHT22;13877;18.896;-99.222;2023-07-29T14:44:09;23.80;99.90
12413;DHT22;13877;18.896;-99.222;2023-07-29T14:46:36;24.00;99.90
12413;DHT22;13877;18.896;-99.222;2023-07-29T14:49:02;24.20;99.90
12413;DHT22;13877;18.896;-99.222;2023-07-29T14:51:28;24.20;99.90
12413;DHT22;13877;18.896;-99.222;2023-07-29T14:53:55;24.20;99.90
12413;DHT22;13877;18.896;-99.222;2023-07-29T14:56:21;23.90;99.90
12413;DHT22;13877;18.896;-99.222;2023-07-29T14:58:48;23.90;99.90
12413;DHT22;13877;18.896;-99.222;2023-07-29T15:01:16;24.00;99.90
12413;DHT22;13877;18.896;-99.222;2023-07-29T15:03:42;24.00;99.90
12413;DHT22;13877;18.896;-99.222;2023-07-29T15:06:09;24.20;99.90
12413;DHT22;13877;18.896;-99.222;2023-07-29T15:08:35;24.20;99.90
12413;DHT22;13877;18.896;-99.222;2023-07-29T15:11:02;24.30;99.90
12413;DHT22;13877;18.896;-99.222;2023-07-29T15:13:28;24.20;99.90
12413;DHT22;13877;18.896;-99.222;2023-07-29T15:15:54;24.30;99.90